Time;durP1;ratioP1;P1;durP2;ratioP2;P2;SDS_P1;SDS_P2;PMS_P1;PMS_P2;Temp;Humidity;BMP_temperature;BMP_pressure;BME280_temperature;BME280_humidity;BME280_pressure;Samples;Min_cycle;Max_cycle;Signal;HPM_P1;HPM_P2
2019/11/29 00:06:29;;;;;;;1.00;0.97;;;;;;;20.54;46.81;99096.88;;;;-48
2019/11/29 00:09:28;;;;;;;0.99;0.99;;;;;;;20.52;46.84;99100.13;;;;-48
2019/11/29 00:12:28;;;;;;;1.11;1.01;;;;;;;20.50;46.80;99097.09;;;;-48
2019/11/29 00:15:28;;;;;;;1.03;1.01;;;;;;;20.50;46.85;99104.02;;;;-48
2019/11/29 00:18:28;;;;;;;1.20;0.99;;;;;;;20.49;46.83;99106.18;;;;-48
2019/11/29 00:21:28;;;;;;;1.62;1.07;;;;;;;20.47;46.87;99106.07;;;;-48
2019/11/29 00:24:28;;;;;;;1.30;1.20;;;;;;;20.46;46.86;99108.51;;;;-48
2019/11/29 00:27:28;;;;;;;1.23;1.04;;;;;;;20.44;46.82;99106.88;;;;-48
2019/11/29 00:30:28;;;;;;;1.09;1.00;;;;;;;20.43;46.86;99108.68;;;;-48
2019/11/29 00:35:29;;;;;;;0.91;0.91;;;;;;;20.41;46.84;99108.08;;;;-48
2019/11/29 00:38:28;;;;;;;1.21;1.11;;;;;;;20.39;46.88;99114.00;;;;-48
2019/11/29 00:41:28;;;;;;;1.17;1.09;;;;;;;20.38;46.82;99109.85;;;;-48
2019/11/29 00:44:28;;;;;;;1.03;1.00;;;;;;;20.37;46.86;99111.34;;;;-48
2019/11/29 00:47:28;;;;;;;1.23;1.13;;;;;;;20.35;46.88;99119.36;;;;-48
2019/11/29 00:50:28;;;;;;;1.40;1.09;;;;;;;20.35;46.84;99122.38;;;;-48
2019/11/29 00:55:28;;;;;;;1.23;1.13;;;;;;;20.33;46.88;99132.06;;;;-48
2019/11/29 01:01:28;;;;;;;1.00;0.95;;;;;;;20.31;46.90;99131.09;;;;-48
2019/11/29 01:04:29;;;;;;;0.87;0.87;;;;;;;20.29;46.90;99127.19;;;;-48
2019/11/29 01:07:28;;;;;;;1.09;1.00;;;;;;;20.29;46.92;99137.08;;;;-48
2019/11/29 01:10:28;;;;;;;1.09;1.00;;;;;;;20.27;46.91;99138.08;;;;-48
2019/11/29 01:13:28;;;;;;;1.74;1.01;;;;;;;20.27;46.92;99143.41;;;;-48
2019/11/29 01:16:28;;;;;;;1.07;1.00;;;;;;;20.26;46.94;99146.84;;;;-48
2019/11/29 01:19:29;;;;;;;0.90;0.90;;;;;;;20.24;46.95;99149.68;;;;-48
2019/11/29 01:22:28;;;;;;;1.01;1.01;;;;;;;20.23;46.95;99148.63;;;;-48
2019/11/29 01:25:28;;;;;;;0.91;0.91;;;;;;;20.22;46.98;99152.56;;;;-48
2019/11/29 01:28:28;;;;;;;1.10;1.00;;;;;;;20.22;46.95;99157.42;;;;-48
2019/11/29 01:31:29;;;;;;;1.16;1.10;;;;;;;20.20;46.95;99162.23;;;;-47
2019/11/29 01:34:28;;;;;;;1.13;1.09;;;;;;;20.19;46.98;99166.14;;;;-48
2019/11/29 01:37:28;;;;;;;1.03;1.00;;;;;;;20.18;46.98;99169.41;;;;-48
2019/11/29 01:40:28;;;;;;;0.99;0.98;;;;;;;20.17;47.02;99169.72;;;;-48
2019/11/29 01:43:28;;;;;;;1.31;1.00;;;;;;;20.16;47.01;99167.69;;;;-49
2019/11/29 01:46:28;;;;;;;0.99;0.99;;;;;;;20.16;47.02;99173.22;;;;-49
2019/11/29 01:49:28;;;;;;;0.97;0.97;;;;;;;20.14;47.04;99170.16;;;;-49
2019/11/29 01:52:28;;;;;;;1.14;1.04;;;;;;;20.14;47.06;99173.34;;;;-49
2019/11/29 01:55:28;;;;;;;1.01;0.98;;;;;;;20.12;47.08;99173.13;;;;-48
2019/11/29 01:58:28;;;;;;;1.09;0.99;;;;;;;20.11;47.11;99178.75;;;;-48
2019/11/29 02:01:28;;;;;;;0.96;0.96;;;;;;;20.10;47.07;99179.06;;;;-47
2019/11/29 02:04:28;;;;;;;0.92;0.92;;;;;;;20.09;47.04;99180.95;;;;-47
2019/11/29 02:07:28;;;;;;;0.99;0.99;;;;;;;20.10;47.06;99185.66;;;;-48
2019/11/29 02:10:28;;;;;;;0.87;0.87;;;;;;;20.08;47.08;99183.88;;;;-48
2019/11/29 02:13:28;;;;;;;0.91;0.91;;;;;;;20.07;47.09;99182.61;;;;-48
2019/11/29 02:16:28;;;;;;;0.89;0.89;;;;;;;20.07;47.12;99189.29;;;;-47
2019/11/29 02:19:29;;;;;;;1.00;1.00;;;;;;;20.06;47.09;99187.02;;;;-48
2019/11/29 02:22:28;;;;;;;1.09;1.07;;;;;;;20.05;47.08;99186.16;;;;-48
2019/11/29 02:25:28;;;;;;;0.96;0.96;;;;;;;20.04;47.09;99185.97;;;;-48
2019/11/29 02:28:34;;;;;;;0.89;0.89;;;;;;;20.03;47.03;99180.58;;;;-48
2019/11/29 02:31:36;;;;;;;0.90;0.90;;;;;;;20.03;47.11;99181.76;;;;-48
2019/11/29 02:34:36;;;;;;;0.97;0.97;;;;;;;20.02;47.11;99183.98;;;;-48
2019/11/29 02:37:28;;;;;;;1.16;1.10;;;;;;;20.01;47.08;99189.25;;;;-48
2019/11/29 02:40:28;;;;;;;0.90;0.90;;;;;;;20.01;47.09;99194.52;;;;-48
2019/11/29 02:43:28;;;;;;;0.95;0.95;;;;;;;19.99;47.13;99189.30;;;;-48
2019/11/29 02:46:28;;;;;;;0.94;0.94;;;;;;;19.99;47.12;99187.44;;;;-48
2019/11/29 02:49:29;;;;;;;1.07;1.00;;;;;;;19.98;47.15;99186.71;;;;-47
2019/11/29 02:52:28;;;;;;;0.98;0.98;;;;;;;19.97;47.12;99187.02;;;;-48
2019/11/29 02:56:29;;;;;;;1.02;1.01;;;;;;;19.96;47.15;99192.63;;;;-48
2019/11/29 02:59:28;;;;;;;0.93;0.93;;;;;;;19.96;47.17;99192.20;;;;-48
2019/11/29 03:04:28;;;;;;;0.90;0.90;;;;;;;19.95;47.15;99192.67;;;;-48
2019/11/29 03:07:28;;;;;;;0.90;0.90;;;;;;;19.93;47.17;99193.73;;;;-48
2019/11/29 03:10:28;;;;;;;0.94;0.94;;;;;;;19.92;47.13;99199.10;;;;-47
2019/11/29 03:13:28;;;;;;;0.92;0.92;;;;;;;19.92;47.17;99200.15;;;;-48
2019/11/29 03:16:34;;;;;;;0.89;0.89;;;;;;;19.92;47.13;99200.25;;;;-47
2019/11/29 03:19:28;;;;;;;0.79;0.79;;;;;;;19.90;47.14;99207.27;;;;-48
2019/11/29 03:22:28;;;;;;;1.08;0.97;;;;;;;19.90;47.15;99214.21;;;;-48
2019/11/29 03:25:28;;;;;;;1.03;0.97;;;;;;;19.89;47.16;99223.39;;;;-49
2019/11/29 03:28:28;;;;;;;1.00;1.00;;;;;;;19.89;47.17;99219.55;;;;-49
2019/11/29 03:31:29;;;;;;;1.00;1.00;;;;;;;19.88;47.15;99227.73;;;;-49
2019/11/29 03:34:28;;;;;;;0.90;0.90;;;;;;;19.87;47.18;99235.15;;;;-49
2019/11/29 03:37:28;;;;;;;0.90;0.90;;;;;;;19.86;47.19;99238.08;;;;-48
2019/11/29 03:40:28;;;;;;;1.14;1.04;;;;;;;19.86;47.12;99242.09;;;;-49
2019/11/29 03:43:28;;;;;;;0.90;0.90;;;;;;;19.85;47.18;99248.61;;;;-49
2019/11/29 03:46:28;;;;;;;0.86;0.86;;;;;;;19.84;47.17;99249.42;;;;-49
2019/11/29 03:49:29;;;;;;;0.89;0.89;;;;;;;19.84;47.18;99248.08;;;;-49
2019/11/29 03:52:29;;;;;;;1.00;1.00;;;;;;;19.83;47.18;99250.91;;;;-49
2019/11/29 03:55:29;;;;;;;0.90;0.90;;;;;;;19.83;47.17;99258.11;;;;-48
2019/11/29 03:58:29;;;;;;;0.84;0.84;;;;;;;19.81;47.17;99259.83;;;;-49
2019/11/29 04:01:28;;;;;;;0.90;0.90;;;;;;;19.81;47.17;99260.41;;;;-49
2019/11/29 04:04:29;;;;;;;0.81;0.81;;;;;;;19.79;47.17;99261.63;;;;-47
2019/11/29 04:16:29;;;;;;;0.77;0.77;;;;;;;19.78;47.20;99278.69;;;;-49
2019/11/29 04:19:29;;;;;;;1.00;1.00;;;;;;;19.76;47.21;99284.50;;;;-49
2019/11/29 04:22:29;;;;;;;0.90;0.90;;;;;;;19.76;47.17;99286.59;;;;-49
2019/11/29 04:25:29;;;;;;;0.89;0.89;;;;;;;19.75;47.18;99296.04;;;;-48
2019/11/29 04:28:29;;;;;;;0.90;0.90;;;;;;;19.75;47.17;99297.65;;;;-49
2019/11/29 04:31:29;;;;;;;1.00;1.00;;;;;;;19.74;47.18;99300.97;;;;-49
2019/11/29 04:34:29;;;;;;;0.90;0.90;;;;;;;19.74;47.18;99303.38;;;;-48
2019/11/29 04:37:29;;;;;;;0.85;0.85;;;;;;;19.73;47.20;99300.31;;;;-49
2019/11/29 04:40:29;;;;;;;0.91;0.91;;;;;;;19.72;47.28;99304.61;;;;-55
2019/11/29 04:43:29;;;;;;;1.82;0.99;;;;;;;19.72;47.19;99300.98;;;;-47
2019/11/29 04:46:29;;;;;;;1.73;0.95;;;;;;;19.74;47.08;99301.88;;;;-47
2019/11/29 04:49:29;;;;;;;1.31;1.01;;;;;;;19.75;46.99;99305.92;;;;-48
2019/11/29 04:52:29;;;;;;;1.09;1.00;;;;;;;19.76;46.87;99304.95;;;;-47
2019/11/29 04:55:29;;;;;;;2.36;1.14;;;;;;;19.79;46.78;99306.26;;;;-49
2019/11/29 04:58:29;;;;;;;1.07;1.03;;;;;;;19.80;46.68;99308.05;;;;-49
2019/11/29 05:01:29;;;;;;;1.21;1.11;;;;;;;19.85;46.63;99312.27;;;;-50
2019/11/29 05:04:29;;;;;;;1.28;1.18;;;;;;;19.88;46.66;99315.28;;;;-49
2019/11/29 05:07:29;;;;;;;1.45;1.20;;;;;;;19.90;46.51;99315.17;;;;-48
2019/11/29 05:10:29;;;;;;;3.39;1.27;;;;;;;19.94;46.46;99321.97;;;;-47
2019/11/29 05:13:29;;;;;;;1.00;1.00;;;;;;;19.97;46.59;99324.55;;;;-48
2019/11/29 05:16:29;;;;;;;1.39;1.15;;;;;;;20.01;46.66;99326.27;;;;-47
2019/11/29 05:19:29;;;;;;;1.06;1.03;;;;;;;20.03;46.75;99326.72;;;;-47
2019/11/29 05:22:28;;;;;;;1.18;1.10;;;;;;;20.06;46.79;99326.62;;;;-47
2019/11/29 05:30:32;;;;;;;0.93;0.93;;;;;;;20.15;46.85;99342.83;;;;-47
2019/11/29 05:33:29;;;;;;;1.18;1.09;;;;;;;20.18;46.90;99347.66;;;;-48
2019/11/29 05:36:29;;;;;;;1.17;1.11;;;;;;;20.20;46.91;99353.57;;;;-47
2019/11/29 05:39:29;;;;;;;1.21;1.13;;;;;;;20.23;46.98;99358.17;;;;-48
2019/11/29 05:42:29;;;;;;;1.19;1.09;;;;;;;20.26;47.01;99364.18;;;;-47
2019/11/29 05:45:29;;;;;;;1.23;1.13;;;;;;;20.29;47.06;99364.61;;;;-48
2019/11/29 05:48:29;;;;;;;1.08;1.04;;;;;;;20.32;47.03;99372.70;;;;-48
2019/11/29 05:51:29;;;;;;;1.16;1.10;;;;;;;20.34;47.09;99372.68;;;;-47
2019/11/29 05:54:29;;;;;;;1.26;1.16;;;;;;;20.36;47.12;99374.67;;;;-47
2019/11/29 05:57:29;;;;;;;1.12;1.02;;;;;;;20.38;47.13;99378.47;;;;-47
2019/11/29 06:00:29;;;;;;;1.21;1.11;;;;;;;20.41;47.12;99384.75;;;;-47
2019/11/29 06:03:29;;;;;;;1.21;1.10;;;;;;;20.42;47.11;99388.97;;;;-48
2019/11/29 06:06:29;;;;;;;1.39;1.05;;;;;;;20.44;47.14;99390.62;;;;-48
2019/11/29 06:09:29;;;;;;;1.39;1.11;;;;;;;20.46;47.09;99394.59;;;;-54
2019/11/29 06:12:29;;;;;;;1.00;1.00;;;;;;;20.48;47.09;99400.75;;;;-54
2019/11/29 06:15:29;;;;;;;1.05;1.05;;;;;;;20.50;47.12;99409.71;;;;-54
2019/11/29 06:18:29;;;;;;;1.19;1.09;;;;;;;20.52;47.06;99411.84;;;;-55
2019/11/29 06:21:29;;;;;;;1.10;0.99;;;;;;;20.54;47.05;99416.25;;;;-55
2019/11/29 06:24:29;;;;;;;1.25;1.15;;;;;;;20.57;47.00;99419.41;;;;-55
2019/11/29 06:27:29;;;;;;;1.21;1.16;;;;;;;20.60;47.04;99423.67;;;;-55
2019/11/29 06:30:29;;;;;;;0.90;0.90;;;;;;;20.61;47.06;99423.69;;;;-55
2019/11/29 06:33:29;;;;;;;1.10;1.10;;;;;;;20.64;47.02;99425.44;;;;-55
2019/11/29 06:36:29;;;;;;;1.00;1.00;;;;;;;20.65;47.00;99427.20;;;;-52
2019/11/29 06:39:29;;;;;;;1.11;1.07;;;;;;;20.66;47.00;99427.66;;;;-51
2019/11/29 06:42:29;;;;;;;1.24;1.14;;;;;;;20.67;47.00;99428.36;;;;-51
2019/11/29 06:45:29;;;;;;;0.99;0.99;;;;;;;20.68;46.96;99431.73;;;;-51
2019/11/29 06:48:29;;;;;;;1.20;1.10;;;;;;;20.70;46.94;99439.91;;;;-52
2019/11/29 06:51:40;;;;;;;1.20;1.12;;;;;;;20.72;46.92;99444.08;;;;-52
2019/11/29 06:54:37;;;;;;;1.18;1.08;;;;;;;20.74;46.94;99446.38;;;;-51
2019/11/29 06:57:29;;;;;;;1.02;1.00;;;;;;;20.74;46.96;99446.81;;;;-51
2019/11/29 07:00:29;;;;;;;0.99;0.99;;;;;;;20.77;46.94;99452.48;;;;-51
2019/11/29 07:03:29;;;;;;;0.99;0.99;;;;;;;20.78;46.97;99458.98;;;;-52
2019/11/29 07:06:29;;;;;;;0.93;0.93;;;;;;;20.80;46.94;99467.30;;;;-51
2019/11/29 07:09:29;;;;;;;1.17;1.05;;;;;;;20.81;46.90;99472.84;;;;-51
2019/11/29 07:12:29;;;;;;;1.13;1.05;;;;;;;20.82;46.92;99476.80;;;;-54
2019/11/29 07:15:29;;;;;;;0.99;0.99;;;;;;;20.84;46.86;99483.70;;;;-51
2019/11/29 07:18:29;;;;;;;1.05;0.99;;;;;;;20.84;46.87;99492.38;;;;-48
2019/11/29 07:21:29;;;;;;;1.05;1.00;;;;;;;20.85;46.85;99496.00;;;;-48
2019/11/29 07:24:29;;;;;;;1.13;1.09;;;;;;;20.86;46.85;99503.30;;;;-47
2019/11/29 07:27:29;;;;;;;1.07;1.00;;;;;;;20.87;46.82;99507.36;;;;-48
2019/11/29 07:30:29;;;;;;;1.07;1.07;;;;;;;20.89;46.75;99507.47;;;;-47
2019/11/29 07:34:29;;;;;;;1.00;1.00;;;;;;;20.90;46.79;99513.54;;;;-48
2019/11/29 07:37:29;;;;;;;1.10;1.04;;;;;;;20.91;46.76;99519.20;;;;-48
2019/11/29 07:40:29;;;;;;;1.00;1.00;;;;;;;20.92;46.74;99521.41;;;;-54
2019/11/29 07:43:29;;;;;;;1.10;1.10;;;;;;;20.94;46.73;99524.23;;;;-54
2019/11/29 07:46:29;;;;;;;0.99;0.99;;;;;;;20.94;46.74;99529.09;;;;-54
2019/11/29 07:50:29;;;;;;;0.90;0.90;;;;;;;20.97;46.72;99534.18;;;;-54
2019/11/29 07:54:29;;;;;;;1.00;1.00;;;;;;;20.98;46.71;99540.00;;;;-55
2019/11/29 08:00:29;;;;;;;1.24;1.14;;;;;;;21.01;46.68;99549.98;;;;-54
2019/11/29 08:04:29;;;;;;;0.83;0.83;;;;;;;21.03;46.66;99583.77;;;;-54
2019/11/29 08:07:29;;;;;;;1.07;1.06;;;;;;;21.04;46.66;99589.57;;;;-55
2019/11/29 08:10:29;;;;;;;0.91;0.91;;;;;;;21.05;46.64;99595.97;;;;-54
2019/11/29 08:14:29;;;;;;;1.19;1.10;;;;;;;21.08;46.62;99597.13;;;;-55
2019/11/29 08:23:36;;;;;;;1.20;1.10;;;;;;;21.12;46.57;99615.22;;;;-52
2019/11/29 08:26:29;;;;;;;1.01;1.00;;;;;;;21.12;46.60;99614.55;;;;-52
2019/11/29 08:29:29;;;;;;;1.17;1.10;;;;;;;21.12;46.56;99621.83;;;;-52
2019/11/29 08:32:29;;;;;;;1.19;1.07;;;;;;;21.14;46.53;99628.53;;;;-51
2019/11/29 08:35:29;;;;;;;1.01;1.01;;;;;;;21.15;46.42;99626.09;;;;-52
2019/11/29 08:39:29;;;;;;;1.03;1.00;;;;;;;21.16;46.45;99646.27;;;;-55
2019/11/29 08:43:29;;;;;;;0.96;0.95;;;;;;;21.15;46.47;99658.41;;;;-55
2019/11/29 08:46:29;;;;;;;1.09;1.00;;;;;;;21.16;46.40;99666.66;;;;-55
2019/11/29 08:49:29;;;;;;;1.05;1.04;;;;;;;21.15;46.43;99681.08;;;;-54
2019/11/29 08:52:29;;;;;;;1.13;1.02;;;;;;;21.15;46.37;99690.51;;;;-55
2019/11/29 08:55:29;;;;;;;1.00;1.00;;;;;;;21.16;46.36;99700.34;;;;-54
2019/11/29 08:58:29;;;;;;;1.23;1.05;;;;;;;21.16;46.31;99704.77;;;;-54
2019/11/29 09:01:29;;;;;;;1.69;1.06;;;;;;;21.16;46.41;99713.03;;;;-55
2019/11/29 09:04:29;;;;;;;1.85;1.00;;;;;;;21.16;46.47;99724.17;;;;-55
2019/11/29 09:07:29;;;;;;;5.19;1.09;;;;;;;21.15;46.27;99734.91;;;;-54
2019/11/29 09:10:29;;;;;;;1.69;1.44;;;;;;;21.11;45.42;99744.94;;;;-54
2019/11/29 09:13:29;;;;;;;5.53;1.88;;;;;;;21.18;46.69;99747.58;;;;-54
2019/11/29 09:16:29;;;;;;;5.25;1.48;;;;;;;21.21;46.83;99752.25;;;;-53
2019/11/29 09:19:29;;;;;;;5.64;1.53;;;;;;;21.24;46.92;99761.16;;;;-53
2019/11/29 09:22:29;;;;;;;3.17;1.44;;;;;;;21.27;46.86;99766.41;;;;-57
2019/11/29 09:25:29;;;;;;;3.65;1.63;;;;;;;21.27;47.07;99776.69;;;;-58
2019/11/29 09:28:29;;;;;;;3.79;1.77;;;;;;;21.31;47.76;99781.30;;;;-63
2019/11/29 09:31:29;;;;;;;4.11;1.50;;;;;;;21.32;47.02;99788.14;;;;-55
2019/11/29 09:34:29;;;;;;;8.01;2.33;;;;;;;21.27;45.88;99797.75;;;;-56
2019/11/29 09:37:29;;;;;;;3.60;2.16;;;;;;;21.23;45.84;99803.28;;;;-61
2019/11/29 09:43:29;;;;;;;4.69;2.25;;;;;;;21.20;46.35;99821.68;;;;-58
2019/11/29 09:50:32;;;;;;;6.28;2.00;;;;;;;21.27;46.12;99834.53;;;;-54
2019/11/29 09:54:29;;;;;;;4.67;1.90;;;;;;;21.28;46.13;99842.95;;;;-54
2019/11/29 09:59:29;;;;;;;6.91;2.10;;;;;;;21.36;46.78;99854.50;;;;-59
2019/11/29 10:02:29;;;;;;;3.31;2.04;;;;;;;21.37;46.70;99862.02;;;;-49
2019/11/29 10:05:29;;;;;;;5.04;2.11;;;;;;;21.41;46.88;99868.17;;;;-45
2019/11/29 10:08:29;;;;;;;4.42;1.92;;;;;;;21.44;47.00;99872.95;;;;-51
2019/11/29 10:11:29;;;;;;;4.17;1.99;;;;;;;21.47;46.83;99879.48;;;;-47
2019/11/29 10:14:29;;;;;;;3.31;1.94;;;;;;;21.50;47.59;99886.39;;;;-47
2019/11/29 10:17:29;;;;;;;2.35;1.91;;;;;;;21.55;47.49;99892.20;;;;-45
2019/11/29 10:20:29;;;;;;;6.47;2.09;;;;;;;21.58;47.81;99897.09;;;;-47
2019/11/29 10:23:29;;;;;;;7.65;2.04;;;;;;;21.63;47.52;99906.77;;;;-51
2019/11/29 10:26:29;;;;;;;7.27;2.19;;;;;;;21.66;47.97;99911.79;;;;-57
2019/11/29 10:29:29;;;;;;;9.73;2.10;;;;;;;21.66;47.57;99917.94;;;;-49
2019/11/29 10:32:29;;;;;;;3.69;1.83;;;;;;;21.66;47.05;99925.37;;;;-50
2019/11/29 10:35:29;;;;;;;6.65;1.90;;;;;;;21.67;47.07;99927.28;;;;-50
2019/11/29 10:38:29;;;;;;;7.37;2.23;;;;;;;21.67;46.81;99929.60;;;;-51
2019/11/29 10:41:29;;;;;;;5.57;2.15;;;;;;;21.69;46.67;99928.98;;;;-49
2019/11/29 10:44:29;;;;;;;7.23;2.01;;;;;;;21.70;46.95;99927.77;;;;-49
2019/11/29 10:47:29;;;;;;;3.94;1.94;;;;;;;21.70;47.07;99928.94;;;;-51
2019/11/29 10:50:29;;;;;;;5.84;1.90;;;;;;;21.70;46.98;99931.29;;;;-52
2019/11/29 10:53:29;;;;;;;3.75;1.99;;;;;;;21.72;46.92;99933.02;;;;-52
2019/11/29 10:56:29;;;;;;;2.63;1.77;;;;;;;21.73;47.11;99937.92;;;;-49
2019/11/29 10:59:29;;;;;;;5.88;2.21;;;;;;;21.73;47.23;99944.14;;;;-52
2019/11/29 11:02:29;;;;;;;5.06;1.99;;;;;;;21.76;47.41;99945.06;;;;-51
2019/11/29 11:05:29;;;;;;;3.57;1.78;;;;;;;21.72;45.88;99952.63;;;;-53
2019/11/29 11:08:29;;;;;;;5.79;2.08;;;;;;;21.74;46.80;99955.77;;;;-51
2019/11/29 11:11:29;;;;;;;9.21;1.88;;;;;;;21.77;47.24;99963.66;;;;-52
2019/11/29 11:14:29;;;;;;;7.99;2.27;;;;;;;21.77;46.99;99970.98;;;;-51
2019/11/29 11:17:29;;;;;;;4.26;2.03;;;;;;;21.76;46.52;99974.21;;;;-50
2019/11/29 11:20:29;;;;;;;4.75;1.89;;;;;;;21.77;47.15;99976.09;;;;-52
2019/11/29 11:23:29;;;;;;;4.53;1.95;;;;;;;21.77;46.74;99979.22;;;;-50
2019/11/29 11:26:30;;;;;;;5.70;2.05;;;;;;;21.78;46.87;99983.61;;;;-49
2019/11/29 11:29:30;;;;;;;5.77;1.80;;;;;;;21.81;47.57;99986.45;;;;-52
2019/11/29 11:32:29;;;;;;;5.91;1.95;;;;;;;21.82;46.92;99991.12;;;;-52
2019/11/29 11:35:29;;;;;;;5.18;1.70;;;;;;;21.80;46.60;99994.42;;;;-52
2019/11/29 11:38:29;;;;;;;4.89;2.26;;;;;;;21.80;46.30;99998.80;;;;-52
2019/11/29 11:41:29;;;;;;;6.81;2.10;;;;;;;21.69;45.06;99993.02;;;;-49
2019/11/29 11:44:29;;;;;;;4.61;1.91;;;;;;;21.64;45.40;99995.69;;;;-50
2019/11/29 11:47:29;;;;;;;5.36;2.03;;;;;;;21.60;45.00;99996.83;;;;-50
2019/11/29 11:50:29;;;;;;;4.98;2.21;;;;;;;21.60;45.21;100006.20;;;;-49
2019/11/29 11:53:29;;;;;;;4.81;2.00;;;;;;;21.57;45.04;100006.18;;;;-53
2019/11/29 11:56:29;;;;;;;3.87;2.11;;;;;;;21.56;44.83;100008.94;;;;-50
2019/11/29 11:59:29;;;;;;;4.07;2.10;;;;;;;21.54;44.97;100016.52;;;;-52
2019/11/29 12:02:29;;;;;;;3.85;2.13;;;;;;;21.54;45.07;100024.34;;;;-49
2019/11/29 12:05:29;;;;;;;5.56;2.19;;;;;;;21.52;44.99;100023.78;;;;-49
2019/11/29 12:08:29;;;;;;;3.22;1.91;;;;;;;21.52;44.82;100026.64;;;;-50
2019/11/29 12:11:29;;;;;;;4.63;2.01;;;;;;;21.51;44.95;100034.74;;;;-52
2019/11/29 12:14:29;;;;;;;3.70;1.83;;;;;;;21.49;44.57;100036.73;;;;-50
2019/11/29 12:17:29;;;;;;;4.47;1.99;;;;;;;21.49;44.82;100037.91;;;;-51
2019/11/29 12:20:29;;;;;;;3.77;2.03;;;;;;;21.49;44.61;100043.78;;;;-50
2019/11/29 12:23:29;;;;;;;2.75;1.81;;;;;;;21.49;44.55;100045.80;;;;-52
2019/11/29 12:26:29;;;;;;;3.94;1.99;;;;;;;21.48;44.62;100037.20;;;;-51
2019/11/29 12:29:29;;;;;;;4.28;1.96;;;;;;;21.52;44.40;100044.78;;;;-49
2019/11/29 12:32:30;;;;;;;3.02;1.87;;;;;;;21.55;44.58;100046.05;;;;-50
2019/11/29 12:35:29;;;;;;;4.21;1.99;;;;;;;21.56;44.68;100047.92;;;;-50
2019/11/29 12:38:29;;;;;;;2.65;1.73;;;;;;;21.57;44.82;100049.97;;;;-50
2019/11/29 12:41:29;;;;;;;2.77;1.75;;;;;;;21.58;44.83;100051.34;;;;-50
2019/11/29 12:44:29;;;;;;;3.40;1.69;;;;;;;21.58;44.90;100054.88;;;;-50
2019/11/29 12:47:33;;;;;;;4.13;1.99;;;;;;;21.58;44.96;100057.23;;;;-49
2019/11/29 12:50:29;;;;;;;2.81;1.75;;;;;;;21.59;44.91;100059.41;;;;-50
2019/11/29 12:53:29;;;;;;;2.62;1.74;;;;;;;21.60;44.96;100066.70;;;;-50
2019/11/29 12:56:29;;;;;;;2.47;1.80;;;;;;;21.59;45.02;100071.84;;;;-50
2019/11/29 12:59:29;;;;;;;2.13;1.67;;;;;;;21.60;44.98;100075.91;;;;-50
2019/11/29 13:02:29;;;;;;;2.66;1.95;;;;;;;21.60;45.03;100080.48;;;;-50
2019/11/29 13:05:29;;;;;;;2.42;1.76;;;;;;;21.59;45.05;100081.89;;;;-50
2019/11/29 13:08:29;;;;;;;2.28;1.69;;;;;;;21.60;45.08;100092.91;;;;-49
2019/11/29 13:11:29;;;;;;;2.61;1.74;;;;;;;21.59;45.09;100091.91;;;;-50
2019/11/29 13:14:29;;;;;;;2.98;1.80;;;;;;;21.60;45.10;100095.53;;;;-49
2019/11/29 13:17:30;;;;;;;3.91;1.70;;;;;;;21.62;45.55;100102.34;;;;-49
2019/11/29 13:20:29;;;;;;;2.73;1.57;;;;;;;21.63;45.58;100104.23;;;;-50
2019/11/29 13:23:29;;;;;;;3.01;1.95;;;;;;;21.67;45.79;100107.23;;;;-52
2019/11/29 13:26:29;;;;;;;2.55;1.73;;;;;;;21.68;45.62;100113.16;;;;-50
2019/11/29 13:29:29;;;;;;;4.51;1.95;;;;;;;21.70;45.58;100116.09;;;;-51
2019/11/29 13:32:29;;;;;;;3.02;1.80;;;;;;;21.70;45.42;100118.95;;;;-51
2019/11/29 13:35:29;;;;;;;2.63;1.69;;;;;;;21.68;45.34;100126.02;;;;-51
2019/11/29 13:38:29;;;;;;;3.56;1.66;;;;;;;21.68;45.33;100130.66;;;;-51
2019/11/29 13:41:29;;;;;;;3.04;1.84;;;;;;;21.68;45.34;100130.66;;;;-51
2019/11/29 13:44:29;;;;;;;3.51;1.76;;;;;;;21.69;45.32;100135.63;;;;-52
2019/11/29 13:47:29;;;;;;;2.57;1.83;;;;;;;21.70;45.33;100141.28;;;;-51
2019/11/29 13:50:29;;;;;;;2.73;1.81;;;;;;;21.71;45.34;100145.37;;;;-51
2019/11/29 13:53:29;;;;;;;2.38;1.65;;;;;;;21.70;45.33;100146.86;;;;-52
2019/11/29 13:56:29;;;;;;;2.75;1.71;;;;;;;21.71;45.32;100149.72;;;;-52
2019/11/29 13:59:29;;;;;;;2.87;1.59;;;;;;;21.70;45.32;100154.48;;;;-51
2019/11/29 14:02:31;;;;;;;2.05;1.65;;;;;;;21.70;45.33;100159.80;;;;-52
2019/11/29 14:05:30;;;;;;;2.72;1.79;;;;;;;21.71;45.27;100162.59;;;;-51
2019/11/29 14:08:29;;;;;;;2.59;1.60;;;;;;;21.71;45.31;100169.98;;;;-52
2019/11/29 14:11:29;;;;;;;2.18;1.64;;;;;;;21.70;45.27;100173.81;;;;-52
2019/11/29 14:14:29;;;;;;;2.37;1.59;;;;;;;21.71;45.22;100181.75;;;;-52
2019/11/29 14:17:39;;;;;;;2.33;1.72;;;;;;;21.71;45.27;100192.41;;;;-52
2019/11/29 14:20:29;;;;;;;2.50;1.63;;;;;;;21.70;45.32;100198.26;;;;-52
2019/11/29 14:23:29;;;;;;;2.01;1.67;;;;;;;21.69;45.27;100201.02;;;;-51
2019/11/29 14:26:29;;;;;;;2.05;1.55;;;;;;;21.69;45.27;100212.78;;;;-52
2019/11/29 14:29:29;;;;;;;1.99;1.41;;;;;;;21.70;45.22;100217.18;;;;-51
2019/11/29 14:32:29;;;;;;;2.83;1.45;;;;;;;21.68;45.25;100225.02;;;;-51
2019/11/29 14:35:29;;;;;;;2.11;1.56;;;;;;;21.68;45.19;100228.31;;;;-51
2019/11/29 14:38:28;;;;;;;2.22;1.59;;;;;;;21.66;45.28;100235.74;;;;-52
2019/11/29 14:41:28;;;;;;;1.64;1.46;;;;;;;21.67;45.22;100248.85;;;;-51
2019/11/29 14:44:29;;;;;;;2.06;1.43;;;;;;;21.66;45.21;100254.59;;;;-50
2019/11/29 14:47:29;;;;;;;2.13;1.53;;;;;;;21.66;45.25;100261.83;;;;-52
2019/11/29 14:50:29;;;;;;;2.99;1.42;;;;;;;21.66;45.16;100267.74;;;;-50
2019/11/29 14:53:29;;;;;;;1.94;1.64;;;;;;;21.63;45.22;100273.30;;;;-51
2019/11/29 14:56:29;;;;;;;1.93;1.60;;;;;;;21.63;45.28;100278.23;;;;-51
2019/11/29 14:59:29;;;;;;;5.67;1.60;;;;;;;21.64;45.54;100278.53;;;;-52
2019/11/29 15:02:29;;;;;;;2.52;1.63;;;;;;;21.66;45.60;100281.52;;;;-49
2019/11/29 15:05:29;;;;;;;4.07;1.57;;;;;;;21.68;45.70;100285.19;;;;-51
2019/11/29 15:08:29;;;;;;;1.79;1.53;;;;;;;21.70;45.71;100286.87;;;;-49
2019/11/29 15:11:29;;;;;;;3.31;1.61;;;;;;;21.71;45.80;100291.67;;;;-49
2019/11/29 15:14:29;;;;;;;3.96;1.80;;;;;;;21.73;45.60;100295.77;;;;-51
2019/11/29 15:17:29;;;;;;;2.98;1.63;;;;;;;21.75;45.75;100300.45;;;;-52
2019/11/29 15:20:29;;;;;;;2.19;1.57;;;;;;;21.76;45.80;100310.23;;;;-51
2019/11/29 15:23:28;;;;;;;2.28;1.52;;;;;;;21.77;45.92;100312.71;;;;-52
2019/11/29 15:26:29;;;;;;;4.17;1.71;;;;;;;21.79;45.79;100317.72;;;;-50
2019/11/29 15:29:29;;;;;;;2.33;1.57;;;;;;;21.80;45.94;100325.83;;;;-50
2019/11/29 15:32:29;;;;;;;4.47;1.67;;;;;;;21.79;45.67;100329.09;;;;-47
2019/11/29 15:35:29;;;;;;;1.78;1.41;;;;;;;21.78;45.55;100331.64;;;;-46
2019/11/29 15:38:29;;;;;;;2.61;1.55;;;;;;;21.78;45.47;100341.56;;;;-47
2019/11/29 15:41:29;;;;;;;2.97;1.75;;;;;;;21.77;45.47;100342.20;;;;-46
2019/11/29 15:44:29;;;;;;;2.89;1.54;;;;;;;21.76;45.44;100342.16;;;;-50
2019/11/29 15:47:28;;;;;;;3.55;1.49;;;;;;;21.74;45.44;100347.41;;;;-49
2019/11/29 15:50:29;;;;;;;2.32;1.69;;;;;;;21.75;45.41;100354.23;;;;-49
2019/11/29 15:53:29;;;;;;;2.86;1.59;;;;;;;21.74;45.33;100359.52;;;;-49
2019/11/29 15:56:31;;;;;;;2.61;1.57;;;;;;;21.73;45.30;100364.86;;;;-49
2019/11/29 15:59:32;;;;;;;2.19;1.63;;;;;;;21.72;45.42;100371.55;;;;-49
2019/11/29 16:02:29;;;;;;;2.69;1.43;;;;;;;21.72;45.30;100382.74;;;;-49
2019/11/29 16:05:29;;;;;;;2.84;1.65;;;;;;;21.71;45.38;100386.98;;;;-49
2019/11/29 16:08:28;;;;;;;3.01;1.53;;;;;;;21.71;45.39;100398.98;;;;-49
2019/11/29 16:11:29;;;;;;;2.17;1.60;;;;;;;21.71;45.40;100403.95;;;;-50
2019/11/29 16:14:29;;;;;;;2.35;1.67;;;;;;;21.70;45.36;100410.64;;;;-50
2019/11/29 16:17:29;;;;;;;2.82;1.82;;;;;;;21.69;45.44;100410.88;;;;-49
2019/11/29 16:20:29;;;;;;;1.75;1.57;;;;;;;21.69;45.47;100416.33;;;;-48
2019/11/29 16:23:28;;;;;;;2.33;1.70;;;;;;;21.70;45.37;100421.50;;;;-50
2019/11/29 16:26:29;;;;;;;2.46;1.68;;;;;;;21.70;45.38;100425.20;;;;-49
2019/11/29 16:29:28;;;;;;;4.41;1.68;;;;;;;21.75;45.55;100428.70;;;;-48
2019/11/29 16:32:29;;;;;;;3.02;1.72;;;;;;;21.76;45.75;100430.59;;;;-49
2019/11/29 16:35:29;;;;;;;2.77;1.53;;;;;;;21.80;45.76;100436.78;;;;-48
2019/11/29 16:38:29;;;;;;;3.22;1.86;;;;;;;21.81;45.77;100440.95;;;;-49
2019/11/29 16:41:29;;;;;;;5.03;1.71;;;;;;;21.83;45.75;100444.34;;;;-47
2019/11/29 16:44:29;;;;;;;3.45;1.73;;;;;;;21.85;45.80;100446.13;;;;-50
2019/11/29 16:47:29;;;;;;;2.46;1.78;;;;;;;21.89;45.75;100451.81;;;;-49
2019/11/29 16:50:28;;;;;;;5.87;1.86;;;;;;;21.90;45.65;100457.03;;;;-57
2019/11/29 16:53:29;;;;;;;2.65;1.83;;;;;;;21.90;45.46;100459.82;;;;-45
2019/11/29 16:56:29;;;;;;;4.47;1.78;;;;;;;21.92;45.50;100465.07;;;;-46
2019/11/29 16:59:29;;;;;;;5.13;1.90;;;;;;;21.93;45.44;100472.47;;;;-61
2019/11/29 17:02:29;;;;;;;2.81;1.85;;;;;;;21.95;45.83;100477.78;;;;-58
2019/11/29 17:05:28;;;;;;;4.45;1.89;;;;;;;21.95;46.09;100481.95;;;;-58
2019/11/29 17:08:29;;;;;;;3.40;1.80;;;;;;;21.96;45.79;100488.28;;;;-54
2019/11/29 17:11:29;;;;;;;2.11;1.78;;;;;;;21.96;45.63;100491.74;;;;-53
2019/11/29 17:14:29;;;;;;;3.63;1.77;;;;;;;21.97;45.80;100495.31;;;;-52
2019/11/29 17:17:29;;;;;;;2.41;1.89;;;;;;;22.00;45.87;100502.95;;;;-49
2019/11/29 17:20:29;;;;;;;6.37;2.02;;;;;;;21.99;46.12;100511.66;;;;-59
2019/11/29 17:23:29;;;;;;;2.55;1.79;;;;;;;22.00;46.15;100519.09;;;;-44
2019/11/29 17:30:28;;;;;;;2.67;1.91;;;;;;;22.03;46.01;100528.85;;;;-45
2019/11/29 17:33:28;;;;;;;2.15;1.75;;;;;;;22.03;45.97;100528.34;;;;-45
2019/11/29 17:36:29;;;;;;;2.29;1.83;;;;;;;22.04;45.91;100535.65;;;;-50
2019/11/29 17:39:29;;;;;;;2.65;1.89;;;;;;;22.04;46.04;100539.69;;;;-51
2019/11/29 17:42:29;;;;;;;2.13;1.82;;;;;;;22.05;46.10;100543.99;;;;-48
2019/11/29 17:45:31;;;;;;;4.91;2.17;;;;;;;22.04;46.12;100548.50;;;;-51
2019/11/29 17:48:28;;;;;;;9.61;2.16;;;;;;;22.05;46.04;100548.94;;;;-52
2019/11/29 17:51:28;;;;;;;3.17;2.05;;;;;;;22.04;46.06;100551.63;;;;-50